Albany, Kentucky
Current Conditions -  °F | °C
As of 4:56 PM on Monday 20 Oct 2014 (Local Time) from KEKQ Reporting Station
Few Clouds Few Clouds  
Wind Chill: 63°   Ceiling: Unl
Heat Index: 63°   Visibility: 10mi
Dew Point: 49°   Wind: 9mph
Humidity: 60%   Direction: 220°SW
Pressure: 29.98"   Gusts: NA
Location:  36.69°N, 85.13°W
Report Text: KEKQ 202156Z AUTO 22008KT 10SM FEW085 17/09 A2998 RMK AO2 T01720094 SLP156
Loading
Personal Weather Stations






























Interactive Weather Map
Tropical Storm Tracking
New forecast layout! Learn more

10-Day Weather Forecast

Advertisements
Track Severe Weather on mobile